Saint Bonnet de Bellac- Haute Vienne - France
Donnes mto: samedi, 10/03/2012
Date Horaire Temp. E. Hum. E. P.atmo. Pluie Vent Direction Direction Ensoleilleme Solaire P. de rose Temp au vent Rafales
10/03/2012 00:00 1,8 C 78 % 1035,6 hPa 0,0 mm 0,0 km/h (0 Bft) E-NE 67 0 min 0 W/m -1,6 C 1,8 C 0,0 km/h (0 Bft)
10/03/2012 00:10 1,6 C 78 % 1035,6 hPa 0,0 mm 0,0 km/h (0 Bft) E-NE 67 0 min 0 W/m -1,8 C 1,6 C 0,0 km/h (0 Bft)
10/03/2012 00:20 1,6 C 79 % 1035,8 hPa 0,0 mm 0,0 km/h (0 Bft) E-NE 67 0 min 0 W/m -1,6 C 1,6 C 0,0 km/h (0 Bft)
10/03/2012 00:30 1,6 C 80 % 1035,7 hPa 0,0 mm 0,0 km/h (0 Bft) E 90 0 min 0 W/m -1,5 C 1,6 C 0,0 km/h (0 Bft)
10/03/2012 00:40 1,4 C 80 % 1035,8 hPa 0,0 mm 0,0 km/h (0 Bft) E 90 0 min 0 W/m -1,7 C 1,4 C 0,0 km/h (0 Bft)
10/03/2012 00:50 1,4 C 81 % 1035,7 hPa 0,0 mm 0,0 km/h (0 Bft) E 90 0 min 0 W/m -1,5 C 1,4 C 0,0 km/h (0 Bft)
10/03/2012 01:00 1,3 C 81 % 1035,8 hPa 0,0 mm 0,0 km/h (0 Bft) E 90 0 min 0 W/m -1,6 C 1,3 C 0,0 km/h (0 Bft)
10/03/2012 01:10 1,1 C 81 % 1035,8 hPa 0,0 mm 0,0 km/h (0 Bft) E 90 0 min 0 W/m -1,8 C 1,1 C 0,0 km/h (0 Bft)
10/03/2012 01:20 0,9 C 81 % 1035,7 hPa 0,0 mm 0,0 km/h (0 Bft) E 90 0 min 0 W/m -2,0 C 0,9 C 0,0 km/h (0 Bft)
10/03/2012 01:30 0,8 C 82 % 1035,6 hPa 0,0 mm 0,0 km/h (0 Bft) E 90 0 min 0 W/m -1,9 C 0,8 C 0,0 km/h (0 Bft)
10/03/2012 01:40 0,6 C 83 % 1035,4 hPa 0,0 mm 0,0 km/h (0 Bft) E 90 0 min 0 W/m -1,9 C 0,6 C 0,0 km/h (0 Bft)
10/03/2012 01:50 0,6 C 83 % 1035,3 hPa 0,0 mm 0,0 km/h (0 Bft) E 90 0 min 0 W/m -1,9 C 0,6 C 0,0 km/h (0 Bft)
10/03/2012 02:02 0,6 C 82 % 1035,3 hPa 0,0 mm 1,1 km/h (1 Bft) E-SE 112 0 min 0 W/m -2,1 C 0,6 C 3,6 km/h (1 Bft)
10/03/2012 02:10 0,8 C 83 % 1035,3 hPa 0,0 mm 0,0 km/h (0 Bft) E-SE 112 0 min 0 W/m -1,8 C 0,8 C 0,0 km/h (0 Bft)
10/03/2012 02:20 0,6 C 83 % 1035,2 hPa 0,0 mm 0,0 km/h (0 Bft) SE 135 0 min 0 W/m -1,9 C 0,6 C 0,0 km/h (0 Bft)
10/03/2012 02:30 0,4 C 83 % 1035,1 hPa 0,0 mm 0,0 km/h (0 Bft) E-SE 112 0 min 0 W/m -2,1 C 0,4 C 0,0 km/h (0 Bft)
10/03/2012 02:40 0,3 C 83 % 1035,1 hPa 0,0 mm 0,0 km/h (0 Bft) E 90 0 min 0 W/m -2,2 C 0,3 C 0,0 km/h (0 Bft)
10/03/2012 02:50 0,1 C 84 % 1035,0 hPa 0,0 mm 0,0 km/h (0 Bft) E 90 0 min 0 W/m -2,3 C 0,1 C 0,0 km/h (0 Bft)
10/03/2012 03:00 0,1 C 83 % 1035,0 hPa 0,0 mm 0,0 km/h (0 Bft) E-SE 112 0 min 0 W/m -2,4 C 0,1 C 0,0 km/h (0 Bft)
10/03/2012 03:10 0,2 C 84 % 1035,0 hPa 0,0 mm 0,0 km/h (0 Bft) E-SE 112 0 min 0 W/m -2,2 C 0,2 C 0,0 km/h (0 Bft)
10/03/2012 03:20 0,2 C 84 % 1035,1 hPa 0,0 mm 0,0 km/h (0 Bft) E-SE 112 0 min 0 W/m -2,2 C 0,2 C 0,0 km/h (0 Bft)
10/03/2012 03:30 0,3 C 85 % 1035,1 hPa 0,0 mm 0,0 km/h (0 Bft) E-SE 112 0 min 0 W/m -1,9 C 0,3 C 0,0 km/h (0 Bft)
10/03/2012 03:40 0,2 C 85 % 1035,2 hPa 0,0 mm 0,0 km/h (0 Bft) E-SE 112 0 min 0 W/m -2,0 C 0,2 C 0,0 km/h (0 Bft)
10/03/2012 03:50 0,2 C 85 % 1034,8 hPa 0,0 mm 0,0 km/h (0 Bft) E-SE 112 0 min 0 W/m -2,0 C 0,2 C 0,0 km/h (0 Bft)
10/03/2012 04:00 -0,1 C 85 % 1034,9 hPa 0,0 mm 0,0 km/h (0 Bft) E-SE 112 0 min 0 W/m -2,3 C -0,1 C 0,0 km/h (0 Bft)
10/03/2012 04:10 -0,2 C 85 % 1034,8 hPa 0,0 mm 0,0 km/h (0 Bft) E-SE 112 0 min 0 W/m -2,4 C -0,2 C 0,0 km/h (0 Bft)
10/03/2012 04:20 -0,3 C 85 % 1034,8 hPa 0,0 mm 0,0 km/h (0 Bft) E-SE 112 0 min 0 W/m -2,5 C -0,3 C 0,0 km/h (0 Bft)
10/03/2012 04:30 -0,6 C 85 % 1034,7 hPa 0,0 mm 0,0 km/h (0 Bft) E-SE 112 0 min 0 W/m -2,8 C -0,6 C 0,0 km/h (0 Bft)
10/03/2012 04:40 -0,5 C 85 % 1034,5 hPa 0,0 mm 0,0 km/h (0 Bft) E 90 0 min 0 W/m -2,7 C -0,5 C 0,0 km/h (0 Bft)
10/03/2012 04:50 -0,4 C 86 % 1034,5 hPa 0,0 mm 0,0 km/h (0 Bft) E 90 0 min 0 W/m -2,4 C -0,4 C 0,0 km/h (0 Bft)
10/03/2012 05:00 -0,6 C 86 % 1034,6 hPa 0,0 mm 0,0 km/h (0 Bft) E 90 0 min 0 W/m -2,6 C -0,6 C 0,0 km/h (0 Bft)
10/03/2012 05:10 -0,6 C 86 % 1034,6 hPa 0,0 mm 0,0 km/h (0 Bft) E 90 0 min 0 W/m -2,6 C -0,6 C 0,0 km/h (0 Bft)
10/03/2012 05:20 -0,7 C 86 % 1034,8 hPa 0,0 mm 0,0 km/h (0 Bft) E 90 0 min 0 W/m -2,7 C -0,7 C 0,0 km/h (0 Bft)
10/03/2012 05:30 -0,9 C 86 % 1034,8 hPa 0,0 mm 0,0 km/h (0 Bft) E 90 0 min 0 W/m -2,9 C -0,9 C 0,0 km/h (0 Bft)
10/03/2012 05:40 -1,1 C 86 % 1034,8 hPa 0,0 mm 0,0 km/h (0 Bft) E 90 0 min 0 W/m -3,1 C -1,1 C 0,0 km/h (0 Bft)
10/03/2012 05:50 -1,2 C 86 % 1034,7 hPa 0,0 mm 0,0 km/h (0 Bft) E 90 0 min 0 W/m -3,2 C -1,2 C 0,0 km/h (0 Bft)
10/03/2012 06:00 -1,4 C 86 % 1034,7 hPa 0,0 mm 0,0 km/h (0 Bft) E 90 0 min 0 W/m -3,4 C -1,4 C 0,0 km/h (0 Bft)
10/03/2012 06:10 -1,4 C 87 % 1034,7 hPa 0,0 mm 0,0 km/h (0 Bft) E 90 0 min 0 W/m -3,3 C -1,4 C 0,0 km/h (0 Bft)
10/03/2012 06:20 -1,5 C 87 % 1034,8 hPa 0,0 mm 0,0 km/h (0 Bft) E 90 0 min 0 W/m -3,4 C -1,5 C 0,0 km/h (0 Bft)
10/03/2012 06:30 -1,7 C 87 % 1034,8 hPa 0,0 mm 0,0 km/h (0 Bft) E 90 0 min 0 W/m -3,6 C -1,7 C 0,0 km/h (0 Bft)
10/03/2012 06:40 -1,7 C 88 % 1034,7 hPa 0,0 mm 0,0 km/h (0 Bft) E 90 0 min 0 W/m -3,4 C -1,7 C 0,0 km/h (0 Bft)
10/03/2012 06:50 -1,7 C 87 % 1034,8 hPa 0,0 mm 0,0 km/h (0 Bft) E-SE 112 0 min 0 W/m -3,6 C -1,7 C 0,0 km/h (0 Bft)
10/03/2012 07:00 -1,8 C 88 % 1034,7 hPa 0,0 mm 0,0 km/h (0 Bft) E 90 0 min 0 W/m -3,5 C -1,8 C 0,0 km/h (0 Bft)
10/03/2012 07:10 -1,9 C 88 % 1034,7 hPa 0,0 mm 0,0 km/h (0 Bft) E-SE 112 0 min 0 W/m -3,6 C -1,9 C 0,0 km/h (0 Bft)
10/03/2012 07:20 -2,0 C 88 % 1034,8 hPa 0,0 mm 0,0 km/h (0 Bft) E 90 0 min 0 W/m -3,7 C -2,0 C 0,0 km/h (0 Bft)
10/03/2012 07:30 -1,9 C 88 % 1034,9 hPa 0,0 mm 0,0 km/h (0 Bft) E 90 2 min 0 W/m -3,6 C -1,9 C 0,0 km/h (0 Bft)
10/03/2012 07:40 -1,9 C 88 % 1034,9 hPa 0,0 mm 0,0 km/h (0 Bft) E 90 2 min 0 W/m -3,6 C -1,9 C 0,0 km/h (0 Bft)
10/03/2012 07:50 -2,0 C 88 % 1034,8 hPa 0,0 mm 0,0 km/h (0 Bft) E 90 2 min 0 W/m -3,7 C -2,0 C 0,0 km/h (0 Bft)
10/03/2012 08:00 -2,0 C 88 % 1034,9 hPa 0,0 mm 0,0 km/h (0 Bft) E 90 2 min 0 W/m -3,7 C -2,0 C 0,0 km/h (0 Bft)
10/03/2012 08:10 -1,7 C 89 % 1035,0 hPa 0,0 mm 0,0 km/h (0 Bft) E-SE 112 2 min 0 W/m -3,3 C -1,7 C 0,0 km/h (0 Bft)
10/03/2012 08:20 -1,2 C 90 % 1035,1 hPa 0,0 mm 0,0 km/h (0 Bft) E-SE 112 2 min 0 W/m -2,6 C -1,2 C 0,0 km/h (0 Bft)
10/03/2012 08:30 -0,6 C 90 % 1035,2 hPa 0,0 mm 0,0 km/h (0 Bft) E-SE 112 2 min 0 W/m -2,0 C -0,6 C 0,0 km/h (0 Bft)
10/03/2012 08:40 0,3 C 90 % 1035,4 hPa 0,0 mm 0,0 km/h (0 Bft) E-SE 112 2 min 0 W/m -1,1 C 0,3 C 0,0 km/h (0 Bft)
10/03/2012 08:50 1,1 C 91 % 1035,4 hPa 0,0 mm 0,0 km/h (0 Bft) E-SE 112 2 min 0 W/m -0,2 C 1,1 C 0,0 km/h (0 Bft)
10/03/2012 09:00 2,1 C 91 % 1035,4 hPa 0,0 mm 0,0 km/h (0 Bft) E-SE 112 2 min 0 W/m 0,8 C 2,1 C 0,0 km/h (0 Bft)
10/03/2012 09:10 3,3 C 90 % 1035,4 hPa 0,0 mm 0,0 km/h (0 Bft) E-SE 112 2 min 0 W/m 1,8 C 3,3 C 0,0 km/h (0 Bft)
10/03/2012 09:20 4,4 C 88 % 1035,6 hPa 0,0 mm 0,0 km/h (0 Bft) E-SE 112 2 min 0 W/m 2,6 C 4,4 C 0,0 km/h (0 Bft)
10/03/2012 09:30 5,4 C 85 % 1035,5 hPa 0,0 mm 0,0 km/h (0 Bft) E-SE 112 2 min 0 W/m 3,1 C 5,4 C 0,0 km/h (0 Bft)
10/03/2012 09:40 6,2 C 83 % 1035,5 hPa 0,0 mm 0,0 km/h (0 Bft) E-SE 112 2 min 0 W/m 3,5 C 6,2 C 0,0 km/h (0 Bft)
10/03/2012 09:50 7,0 C 80 % 1035,5 hPa 0,0 mm 0,0 km/h (0 Bft) E-SE 112 2 min 0 W/m 3,8 C 7,0 C 0,0 km/h (0 Bft)
10/03/2012 10:00 7,8 C 78 % 1035,7 hPa 0,0 mm 0,0 km/h (0 Bft) E-SE 112 2 min 0 W/m 4,2 C 7,8 C 0,0 km/h (0 Bft)
10/03/2012 10:10 8,5 C 75 % 1035,8 hPa 0,0 mm 0,0 km/h (0 Bft) E 90 2 min 0 W/m 4,3 C 8,5 C 0,0 km/h (0 Bft)
10/03/2012 10:20 9,2 C 72 % 1035,9 hPa 0,0 mm 3,2 km/h (1 Bft) N-NE 22 2 min 0 W/m 4,4 C 9,2 C 3,2 km/h (1 Bft)
10/03/2012 10:30 9,8 C 71 % 1036,0 hPa 0,0 mm 1,4 km/h (1 Bft) N-NE 22 2 min 0 W/m 4,8 C 9,8 C 1,4 km/h (1 Bft)
10/03/2012 10:40 10,4 C 69 % 1036,0 hPa 0,0 mm 3,6 km/h (1 Bft) N-NE 22 2 min 0 W/m 5,0 C 10,4 C 3,6 km/h (1 Bft)
10/03/2012 10:50 10,9 C 66 % 1035,9 hPa 0,0 mm 4,7 km/h (1 Bft) N-NE 22 2 min 0 W/m 4,8 C 10,9 C 7,2 km/h (2 Bft)
10/03/2012 11:00 11,5 C 65 % 1035,8 hPa 0,0 mm 1,4 km/h (1 Bft) N-NE 22 2 min 0 W/m 5,2 C 11,5 C 4,0 km/h (1 Bft)
10/03/2012 11:10 11,9 C 62 % 1035,8 hPa 0,0 mm 7,9 km/h (2 Bft) N-NE 22 2 min 0 W/m 4,9 C 11,9 C 10,8 km/h (2 Bft)
10/03/2012 11:20 12,2 C 61 % 1035,7 hPa 0,0 mm 6,8 km/h (2 Bft) N 360 2 min 0 W/m 4,9 C 12,2 C 13,0 km/h (3 Bft)
10/03/2012 11:30 12,4 C 58 % 1035,7 hPa 0,0 mm 13,0 km/h (3 Bft) E-NE 67 2 min 0 W/m 4,4 C 12,4 C 18,4 km/h (3 Bft)
10/03/2012 11:40 12,5 C 57 % 1035,7 hPa 0,0 mm 8,6 km/h (2 Bft) N-NE 22 2 min 0 W/m 4,2 C 12,5 C 10,4 km/h (2 Bft)
10/03/2012 11:50 12,6 C 56 % 1035,5 hPa 0,0 mm 7,9 km/h (2 Bft) NE 45 2 min 0 W/m 4,1 C 12,6 C 10,8 km/h (2 Bft)
10/03/2012 12:00 12,8 C 57 % 1035,5 hPa 0,0 mm 6,8 km/h (2 Bft) E-NE 67 2 min 0 W/m 4,5 C 12,8 C 11,2 km/h (2 Bft)
10/03/2012 12:10 13,1 C 57 % 1035,4 hPa 0,0 mm 8,3 km/h (2 Bft) N-NE 22 2 min 0 W/m 4,8 C 13,1 C 14,8 km/h (3 Bft)
10/03/2012 12:20 13,1 C 55 % 1035,3 hPa 0,0 mm 10,4 km/h (2 Bft) NE 45 2 min 0 W/m 4,3 C 13,1 C 15,1 km/h (3 Bft)
10/03/2012 12:30 13,3 C 55 % 1035,2 hPa 0,0 mm 8,3 km/h (2 Bft) N-NE 22 2 min 0 W/m 4,5 C 13,3 C 12,2 km/h (2 Bft)
10/03/2012 12:40 13,4 C 55 % 1035,1 hPa 0,0 mm 7,6 km/h (2 Bft) NE 45 2 min 0 W/m 4,5 C 13,4 C 8,3 km/h (2 Bft)
10/03/2012 12:50 13,5 C 54 % 1035,1 hPa 0,0 mm 7,6 km/h (2 Bft) N 360 2 min 0 W/m 4,4 C 13,5 C 10,1 km/h (2 Bft)
10/03/2012 13:00 13,5 C 54 % 1035,3 hPa 0,0 mm 6,1 km/h (2 Bft) E 90 2 min 0 W/m 4,4 C 13,5 C 10,8 km/h (2 Bft)
10/03/2012 13:10 13,4 C 55 % 1035,1 hPa 0,0 mm 9,0 km/h (2 Bft) N-NE 22 2 min 0 W/m 4,5 C 13,4 C 9,0 km/h (2 Bft)
10/03/2012 13:20 13,3 C 55 % 1035,0 hPa 0,0 mm 9,7 km/h (2 Bft) N-NE 22 2 min 0 W/m 4,5 C 13,3 C 18,0 km/h (3 Bft)
10/03/2012 13:30 13,3 C 55 % 1035,0 hPa 0,0 mm 4,7 km/h (1 Bft) N-NE 22 2 min 0 W/m 4,5 C 13,3 C 6,1 km/h (2 Bft)
10/03/2012 13:40 13,3 C 54 % 1034,4 hPa 0,0 mm 10,1 km/h (2 Bft) N-NE 22 2 min 0 W/m 4,2 C 13,3 C 13,0 km/h (3 Bft)
10/03/2012 13:50 13,2 C 54 % 1034,3 hPa 0,0 mm 6,8 km/h (2 Bft) N-NE 22 2 min 0 W/m 4,1 C 13,2 C 10,4 km/h (2 Bft)
10/03/2012 14:00 13,3 C 56 % 1034,4 hPa 0,0 mm 5,4 km/h (2 Bft) E-NE 67 2 min 0 W/m 4,7 C 13,3 C 8,3 km/h (2 Bft)
10/03/2012 14:10 13,6 C 56 % 1034,2 hPa 0,0 mm 10,4 km/h (2 Bft) E-NE 67 2 min 0 W/m 5,0 C 13,6 C 15,1 km/h (3 Bft)
10/03/2012 14:20 13,5 C 54 % 1034,0 hPa 0,0 mm 9,4 km/h (2 Bft) E-NE 67 2 min 0 W/m 4,4 C 13,5 C 15,1 km/h (3 Bft)
10/03/2012 14:30 13,4 C 55 % 1033,8 hPa 0,0 mm 8,3 km/h (2 Bft) N 360 2 min 0 W/m 4,5 C 13,4 C 14,0 km/h (3 Bft)
10/03/2012 14:40 13,2 C 55 % 1033,8 hPa 0,0 mm 11,2 km/h (2 Bft) N-NE 22 2 min 0 W/m 4,4 C 13,2 C 14,8 km/h (3 Bft)
10/03/2012 14:50 13,3 C 56 % 1033,7 hPa 0,0 mm 12,2 km/h (2 Bft) N-NE 22 2 min 0 W/m 4,7 C 13,3 C 15,1 km/h (3 Bft)
10/03/2012 15:00 13,1 C 56 % 1033,5 hPa 0,0 mm 12,6 km/h (3 Bft) N 360 2 min 0 W/m 4,5 C 13,1 C 12,6 km/h (3 Bft)
10/03/2012 15:10 12,9 C 56 % 1033,4 hPa 0,0 mm 8,3 km/h (2 Bft) NE 45 2 min 0 W/m 4,3 C 12,9 C 12,6 km/h (3 Bft)
10/03/2012 15:20 12,7 C 57 % 1033,3 hPa 0,0 mm 7,6 km/h (2 Bft) NE 45 2 min 0 W/m 4,4 C 12,7 C 10,1 km/h (2 Bft)
10/03/2012 15:30 12,7 C 58 % 1033,3 hPa 0,0 mm 10,1 km/h (2 Bft) N 360 2 min 0 W/m 4,7 C 12,7 C 14,8 km/h (3 Bft)
10/03/2012 15:40 12,5 C 59 % 1033,4 hPa 0,0 mm 13,3 km/h (3 Bft) N-NO 337 2 min 0 W/m 4,7 C 12,5 C 18,4 km/h (3 Bft)
10/03/2012 15:50 12,3 C 60 % 1033,2 hPa 0,0 mm 9,0 km/h (2 Bft) N-NE 22 2 min 0 W/m 4,8 C 12,3 C 9,0 km/h (2 Bft)
10/03/2012 16:00 12,1 C 61 % 1033,2 hPa 0,0 mm 9,0 km/h (2 Bft) NE 45 2 min 0 W/m 4,8 C 12,1 C 13,3 km/h (3 Bft)
10/03/2012 16:10 11,8 C 62 % 1033,2 hPa 0,0 mm 10,4 km/h (2 Bft) E-NE 67 2 min 0 W/m 4,8 C 11,8 C 13,7 km/h (3 Bft)
10/03/2012 16:20 11,7 C 62 % 1033,2 hPa 0,0 mm 10,8 km/h (2 Bft) N-NE 22 2 min 0 W/m 4,7 C 11,7 C 13,0 km/h (3 Bft)
10/03/2012 16:30 11,5 C 61 % 1033,1 hPa 0,0 mm 9,0 km/h (2 Bft) N 360 2 min 0 W/m 4,2 C 11,5 C 11,5 km/h (2 Bft)
10/03/2012 16:40 11,3 C 63 % 1033,1 hPa 0,0 mm 10,4 km/h (2 Bft) NE 45 2 min 0 W/m 4,5 C 11,3 C 17,3 km/h (3 Bft)
10/03/2012 16:50 11,1 C 63 % 1033,0 hPa 0,0 mm 6,5 km/h (2 Bft) NE 45 2 min 0 W/m 4,3 C 11,1 C 10,1 km/h (2 Bft)
10/03/2012 17:00 10,9 C 64 % 1032,8 hPa 0,0 mm 10,8 km/h (2 Bft) NE 45 2 min 0 W/m 4,4 C 10,9 C 15,8 km/h (3 Bft)
10/03/2012 17:10 10,8 C 64 % 1032,9 hPa 0,0 mm 15,1 km/h (3 Bft) N-NE 22 2 min 0 W/m 4,3 C 10,8 C 16,9 km/h (3 Bft)
10/03/2012 17:20 10,6 C 64 % 1032,8 hPa 0,0 mm 7,6 km/h (2 Bft) N 360 2 min 0 W/m 4,1 C 10,6 C 10,1 km/h (2 Bft)
10/03/2012 17:30 10,6 C 64 % 1032,8 hPa 0,0 mm 7,6 km/h (2 Bft) NE 45 2 min 0 W/m 4,1 C 10,6 C 7,6 km/h (2 Bft)
10/03/2012 17:40 10,4 C 64 % 1032,9 hPa 0,0 mm 7,6 km/h (2 Bft) N-NE 22 2 min 0 W/m 3,9 C 10,4 C 13,7 km/h (3 Bft)
10/03/2012 17:50 10,3 C 64 % 1032,8 hPa 0,0 mm 5,8 km/h (2 Bft) N-NE 22 2 min 0 W/m 3,8 C 10,3 C 9,4 km/h (2 Bft)
10/03/2012 18:00 10,3 C 64 % 1032,8 hPa 0,0 mm 6,1 km/h (2 Bft) N 360 2 min 0 W/m 3,8 C 10,3 C 7,2 km/h (2 Bft)
10/03/2012 18:10 10,3 C 64 % 1032,9 hPa 0,0 mm 8,3 km/h (2 Bft) N-NE 22 2 min 0 W/m 3,8 C 10,3 C 8,3 km/h (2 Bft)
10/03/2012 18:20 10,1 C 64 % 1033,1 hPa 0,0 mm 2,9 km/h (1 Bft) N-NE 22 2 min 0 W/m 3,6 C 10,1 C 6,1 km/h (2 Bft)
10/03/2012 18:30 9,8 C 65 % 1033,0 hPa 0,0 mm 5,4 km/h (2 Bft) N-NE 22 2 min 0 W/m 3,5 C 9,4 C 7,6 km/h (2 Bft)
10/03/2012 18:40 9,5 C 66 % 1033,0 hPa 0,0 mm 2,9 km/h (1 Bft) NE 45 2 min 0 W/m 3,5 C 9,5 C 4,0 km/h (1 Bft)
10/03/2012 18:50 9,2 C 67 % 1033,0 hPa 0,0 mm 1,1 km/h (1 Bft) NE 45 0 min 0 W/m 3,4 C 9,2 C 4,0 km/h (1 Bft)
10/03/2012 19:00 8,8 C 67 % 1033,0 hPa 0,0 mm 2,5 km/h (1 Bft) N-NE 22 0 min 0 W/m 3,0 C 8,8 C 2,5 km/h (1 Bft)
10/03/2012 19:10 8,5 C 68 % 1033,1 hPa 0,0 mm 1,8 km/h (1 Bft) N-NE 22 0 min 0 W/m 2,9 C 8,5 C 1,8 km/h (1 Bft)
10/03/2012 19:20 8,3 C 68 % 1033,1 hPa 0,0 mm 0,4 km/h (0 Bft) N-NE 22 0 min 0 W/m 2,7 C 8,3 C 0,4 km/h (0 Bft)
10/03/2012 19:30 7,9 C 69 % 1033,3 hPa 0,0 mm 0,7 km/h (0 Bft) NE 45 0 min 0 W/m 2,6 C 7,9 C 0,7 km/h (0 Bft)
10/03/2012 19:40 7,7 C 70 % 1033,3 hPa 0,0 mm 1,1 km/h (1 Bft) N-NE 22 0 min 0 W/m 2,6 C 7,7 C 4,0 km/h (1 Bft)
10/03/2012 19:50 7,5 C 71 % 1033,3 hPa 0,0 mm 2,9 km/h (1 Bft) N-NE 22 0 min 0 W/m 2,6 C 7,5 C 4,3 km/h (1 Bft)
10/03/2012 20:00 7,4 C 72 % 1033,3 hPa 0,0 mm 2,9 km/h (1 Bft) N 360 0 min 0 W/m 2,7 C 7,4 C 2,9 km/h (1 Bft)
10/03/2012 20:10 7,4 C 73 % 1033,2 hPa 0,0 mm 3,2 km/h (1 Bft) NE 45 0 min 0 W/m 2,9 C 7,4 C 4,0 km/h (1 Bft)
10/03/2012 20:20 7,3 C 74 % 1033,1 hPa 0,0 mm 4,3 km/h (1 Bft) NE 45 0 min 0 W/m 3,0 C 7,3 C 7,2 km/h (2 Bft)
10/03/2012 20:30 7,2 C 75 % 1033,1 hPa 0,0 mm 2,2 km/h (1 Bft) N-NE 22 0 min 0 W/m 3,1 C 7,2 C 3,2 km/h (1 Bft)
10/03/2012 20:40 7,1 C 75 % 1033,0 hPa 0,0 mm 3,6 km/h (1 Bft) NE 45 0 min 0 W/m 3,0 C 7,1 C 4,0 km/h (1 Bft)
10/03/2012 20:50 6,9 C 76 % 1032,8 hPa 0,0 mm 4,7 km/h (1 Bft) N-NE 22 0 min 0 W/m 3,0 C 6,3 C 6,5 km/h (2 Bft)
10/03/2012 21:00 6,9 C 77 % 1032,9 hPa 0,0 mm 4,7 km/h (1 Bft) NE 45 0 min 0 W/m 3,2 C 6,3 C 4,7 km/h (1 Bft)
10/03/2012 21:10 7,0 C 77 % 1033,0 hPa 0,0 mm 6,1 km/h (2 Bft) NE 45 0 min 0 W/m 3,2 C 6,0 C 6,8 km/h (2 Bft)
10/03/2012 21:20 7,0 C 77 % 1033,0 hPa 0,0 mm 5,0 km/h (1 Bft) NE 45 0 min 0 W/m 3,2 C 6,4 C 8,6 km/h (2 Bft)
10/03/2012 21:30 6,9 C 78 % 1033,0 hPa 0,0 mm 4,3 km/h (1 Bft) N-NE 22 0 min 0 W/m 3,3 C 6,9 C 7,2 km/h (2 Bft)
10/03/2012 21:40 6,9 C 78 % 1033,0 hPa 0,0 mm 4,7 km/h (1 Bft) NE 45 0 min 0 W/m 3,3 C 6,3 C 7,6 km/h (2 Bft)
10/03/2012 21:50 6,8 C 79 % 1033,1 hPa 0,0 mm 4,7 km/h (1 Bft) N-NE 22 0 min 0 W/m 3,4 C 6,2 C 9,0 km/h (2 Bft)
10/03/2012 22:00 6,6 C 78 % 1033,0 hPa 0,0 mm 2,9 km/h (1 Bft) NE 45 0 min 0 W/m 3,0 C 6,6 C 6,1 km/h (2 Bft)
10/03/2012 22:10 6,5 C 79 % 1033,0 hPa 0,0 mm 5,8 km/h (2 Bft) NE 45 0 min 0 W/m 3,1 C 5,5 C 9,4 km/h (2 Bft)
10/03/2012 22:20 6,4 C 79 % 1033,0 hPa 0,0 mm 5,8 km/h (2 Bft) N-NE 22 0 min 0 W/m 3,0 C 5,4 C 9,4 km/h (2 Bft)
10/03/2012 22:30 6,4 C 80 % 1032,9 hPa 0,0 mm 5,0 km/h (1 Bft) N-NE 22 0 min 0 W/m 3,2 C 5,7 C 9,0 km/h (2 Bft)
10/03/2012 22:40 6,3 C 81 % 1033,0 hPa 0,0 mm 5,0 km/h (1 Bft) NE 45 0 min 0 W/m 3,3 C 5,6 C 6,8 km/h (2 Bft)
10/03/2012 22:50 6,3 C 82 % 1032,9 hPa 0,0 mm 5,4 km/h (2 Bft) N-NE 22 0 min 0 W/m 3,5 C 5,4 C 8,6 km/h (2 Bft)
10/03/2012 23:00 6,3 C 82 % 1032,9 hPa 0,0 mm 5,8 km/h (2 Bft) NE 45 0 min 0 W/m 3,5 C 5,3 C 8,3 km/h (2 Bft)
10/03/2012 23:10 6,3 C 82 % 1033,0 hPa 0,0 mm 6,5 km/h (2 Bft) N-NE 22 0 min 0 W/m 3,5 C 5,1 C 7,9 km/h (2 Bft)
10/03/2012 23:20 6,3 C 82 % 1033,1 hPa 0,0 mm 5,8 km/h (2 Bft) NE 45 0 min 0 W/m 3,5 C 5,3 C 9,0 km/h (2 Bft)
10/03/2012 23:30 6,3 C 83 % 1032,9 hPa 0,0 mm 7,2 km/h (2 Bft) N 360 0 min 0 W/m 3,6 C 4,9 C 8,3 km/h (2 Bft)
10/03/2012 23:40 6,3 C 83 % 1032,9 hPa 0,0 mm 6,8 km/h (2 Bft) NE 45 0 min 0 W/m 3,6 C 5,0 C 9,4 km/h (2 Bft)
10/03/2012 23:50 6,3 C 83 % 1033,0 hPa 0,0 mm 2,9 km/h (1 Bft) N-NE 22 0 min 0 W/m 3,6 C 6,3 C 7,6 km/h (2 Bft)
_ Min-Heure 08:00 14:20 20:50 - 10:10 - - - - 08:00 08:00 10:10
Minimum _ -2,0 C 54 % 1032,8 hPa - 0,0 km/h (0 Bft) - - - - -3,7 C -2,0 C 0,0 km/h (0 Bft)
_ Max-Heure 14:10 09:00 10:40 23:50 17:10 - - 18:40 23:50 11:00 14:10 15:40
Maximum _ 13,6 C 91 % 1036,0 hPa 0,0 mm 15,1 km/h
N-NE (3 Bft)
- - 2 min 0 W/m 5,2 C 13,6 C 18,4 km/h
N-NO (3 Bft)
Moyenne _ 6,0 C 74 % 1034,3 hPa #0,0 mm 3,7 km/h (1 Bft) N-NE - #2:16 h 0 W/m 1,5 C 5,9 C 5,3 km/h (1 Bft)
Saint Bonnet de Bellac- Haute Vienne - France